Time;durP1;ratioP1;P1;durP2;ratioP2;P2;SDS_P1;SDS_P2;PMS_P1;PMS_P2;Temp;Humidity;BMP_temperature;BMP_pressure;BME280_temperature;BME280_humidity;BME280_pressure;Samples;Min_cycle;Max_cycle;Signal;HPM_P1;HPM_P2
2021/09/19 00:00:24;;;;;;;7.03;4.03;;;13.20;99.90;;;;;;4989917;28;20109;-76
2021/09/19 00:02:50;;;;;;;5.60;4.05;;;13.20;99.90;;;;;;4987881;28;20058;-76
2021/09/19 00:05:18;;;;;;;6.82;3.88;;;13.20;99.90;;;;;;4985124;28;20089;-76
2021/09/19 00:07:45;;;;;;;7.03;4.35;;;13.20;99.90;;;;;;4988101;28;20503;-76
2021/09/19 00:10:15;;;;;;;5.95;5.13;;;13.20;99.90;;;;;;4986167;28;20058;-77
2021/09/19 00:12:44;;;;;;;11.85;4.88;;;13.20;99.90;;;;;;4971347;28;20058;-77
2021/09/19 00:15:13;;;;;;;5.88;4.20;;;13.20;99.90;;;;;;4985576;28;20100;-77
2021/09/19 00:17:41;;;;;;;7.70;5.03;;;13.20;99.90;;;;;;4954720;28;20074;-76
2021/09/19 00:20:09;;;;;;;7.97;5.07;;;13.30;99.90;;;;;;4987278;28;20058;-77
2021/09/19 00:22:35;;;;;;;5.70;4.93;;;13.30;99.90;;;;;;4988527;28;20047;-77
2021/09/19 00:25:04;;;;;;;6.57;4.88;;;13.20;99.90;;;;;;5001828;28;20054;-76
2021/09/19 00:27:31;;;;;;;6.05;5.15;;;13.20;99.90;;;;;;4956784;28;20380;-77
2021/09/19 00:29:59;;;;;;;7.60;4.97;;;13.30;99.90;;;;;;4986088;28;20050;-77
2021/09/19 00:32:25;;;;;;;7.25;5.43;;;13.30;99.90;;;;;;4987242;28;20109;-76
2021/09/19 00:34:52;;;;;;;7.68;5.60;;;13.30;99.90;;;;;;4969993;28;20108;-77
2021/09/19 00:37:19;;;;;;;6.85;5.45;;;13.30;99.90;;;;;;4952525;28;20046;-77
2021/09/19 00:39:46;;;;;;;6.07;4.68;;;13.30;99.90;;;;;;4970179;28;20054;-76
2021/09/19 00:42:12;;;;;;;7.00;5.03;;;13.30;99.90;;;;;;4985440;28;20058;-77
2021/09/19 00:44:40;;;;;;;12.65;5.68;;;13.30;99.90;;;;;;4986454;28;20070;-76
2021/09/19 00:47:06;;;;;;;6.63;4.72;;;13.20;99.90;;;;;;4986836;28;20530;-75
2021/09/19 00:49:33;;;;;;;7.45;4.75;;;13.20;99.90;;;;;;4986320;28;20050;-75
2021/09/19 00:52:00;;;;;;;5.45;4.50;;;13.30;99.90;;;;;;4984611;28;20058;-76
2021/09/19 00:54:28;;;;;;;10.93;4.95;;;13.30;99.90;;;;;;4983411;28;20176;-76
2021/09/19 00:56:56;;;;;;;4.45;3.67;;;13.30;99.90;;;;;;4998546;28;20120;-77
2021/09/19 00:59:23;;;;;;;5.47;4.13;;;13.20;99.90;;;;;;4989256;28;20129;-77
2021/09/19 01:01:51;;;;;;;5.28;4.40;;;13.20;99.90;;;;;;4985985;28;20538;-77
2021/09/19 01:04:19;;;;;;;5.95;4.85;;;13.10;99.90;;;;;;4985188;28;20069;-77
2021/09/19 01:06:46;;;;;;;11.10;5.20;;;13.10;99.90;;;;;;4970806;28;20109;-76
2021/09/19 01:09:14;;;;;;;6.35;4.80;;;13.00;99.90;;;;;;4967691;28;20046;-75
2021/09/19 01:11:41;;;;;;;7.75;4.80;;;13.00;99.90;;;;;;4983387;28;20055;-76
2021/09/19 01:14:10;;;;;;;6.50;5.00;;;13.00;99.90;;;;;;4986334;28;20270;-76
2021/09/19 01:16:37;;;;;;;6.43;4.43;;;13.00;99.90;;;;;;4985171;28;20609;-77
2021/09/19 01:19:14;;;;;;;8.07;5.00;;;12.90;99.90;;;;;;4969260;28;20050;-77
2021/09/19 01:21:41;;;;;;;6.43;3.95;;;12.90;99.90;;;;;;4984892;28;20116;-77
2021/09/19 01:24:08;;;;;;;6.30;4.22;;;12.90;99.90;;;;;;4986584;28;20132;-77
2021/09/19 01:26:35;;;;;;;5.40;4.40;;;12.90;99.90;;;;;;4984468;28;20127;-77
2021/09/19 01:29:01;;;;;;;6.88;4.35;;;12.90;99.90;;;;;;4985969;28;20495;-76
2021/09/19 01:31:29;;;;;;;6.45;4.43;;;12.80;99.90;;;;;;4986266;28;20506;-77
2021/09/19 01:33:56;;;;;;;7.82;5.80;;;12.80;99.90;;;;;;5000003;28;20327;-76
2021/09/19 01:36:23;;;;;;;7.65;5.60;;;12.90;99.90;;;;;;4968558;28;20152;-76
2021/09/19 01:38:50;;;;;;;5.85;4.35;;;12.80;99.90;;;;;;4986429;28;20081;-77
2021/09/19 01:41:22;;;;;;;6.80;5.20;;;12.80;99.90;;;;;;4964181;28;20512;-78
2021/09/19 01:43:51;;;;;;;11.27;5.70;;;12.70;99.90;;;;;;4997175;28;20127;-77
2021/09/19 01:46:17;;;;;;;9.25;4.90;;;12.70;99.90;;;;;;4988124;28;20107;-77
2021/09/19 01:48:44;;;;;;;7.80;4.90;;;12.80;99.90;;;;;;5004401;28;20062;-78
2021/09/19 01:51:12;;;;;;;7.28;4.65;;;12.70;99.90;;;;;;4987095;28;20189;-77
2021/09/19 01:53:39;;;;;;;6.63;4.60;;;12.80;99.90;;;;;;4979976;28;20545;-76
2021/09/19 01:56:07;;;;;;;11.20;5.22;;;12.80;99.90;;;;;;4983341;28;20077;-77
2021/09/19 01:59:00;;;;;;;6.65;5.43;;;12.80;99.90;;;;;;4985389;28;20066;-77
2021/09/19 02:01:30;;;;;;;6.78;4.80;;;12.80;99.90;;;;;;4982157;28;20054;-78
2021/09/19 02:03:57;;;;;;;10.75;5.20;;;12.80;99.90;;;;;;4985369;28;20093;-77
2021/09/19 02:06:24;;;;;;;8.23;5.38;;;12.80;99.90;;;;;;4967209;28;20101;-78
2021/09/19 02:08:52;;;;;;;8.23;5.00;;;12.80;99.90;;;;;;4951034;28;20709;-76
2021/09/19 02:11:21;;;;;;;6.43;4.82;;;12.80;99.90;;;;;;4967766;28;20124;-76
2021/09/19 02:13:49;;;;;;;6.82;5.15;;;12.90;99.90;;;;;;4968783;28;20058;-76
2021/09/19 02:16:21;;;;;;;8.02;4.68;;;12.80;99.90;;;;;;4984493;28;20062;-76
2021/09/19 02:18:49;;;;;;;6.75;5.28;;;12.80;99.90;;;;;;4968133;28;20068;-77
2021/09/19 02:21:16;;;;;;;9.18;5.13;;;12.80;99.90;;;;;;4983074;28;20539;-77
2021/09/19 02:23:43;;;;;;;7.57;5.65;;;12.80;99.90;;;;;;4968093;28;20057;-76
2021/09/19 02:26:10;;;;;;;8.75;4.78;;;12.80;99.90;;;;;;4990440;28;20439;-77
2021/09/19 02:28:37;;;;;;;7.82;4.72;;;12.90;99.90;;;;;;4984730;28;20058;-76
2021/09/19 02:31:04;;;;;;;6.55;4.25;;;12.80;99.90;;;;;;4983648;28;20073;-77
2021/09/19 02:33:31;;;;;;;6.93;4.88;;;12.90;99.90;;;;;;4967666;28;20195;-76
2021/09/19 02:35:58;;;;;;;5.43;4.72;;;12.80;99.90;;;;;;4984567;28;20061;-76
2021/09/19 02:38:24;;;;;;;6.75;5.20;;;12.80;99.90;;;;;;4985204;28;20086;-76
2021/09/19 02:40:52;;;;;;;8.27;5.03;;;12.90;99.90;;;;;;4984703;28;20058;-77
2021/09/19 02:43:20;;;;;;;7.05;5.57;;;12.90;99.90;;;;;;4984433;28;20121;-77
2021/09/19 02:45:48;;;;;;;6.50;4.60;;;12.80;99.90;;;;;;4983333;28;20108;-78
2021/09/19 02:48:15;;;;;;;6.10;4.43;;;12.80;99.90;;;;;;4985298;28;20061;-77
2021/09/19 02:50:42;;;;;;;11.65;5.03;;;12.90;99.90;;;;;;4967313;28;20046;-77
2021/09/19 02:53:09;;;;;;;9.27;5.38;;;12.90;99.90;;;;;;4964034;28;20084;-77
2021/09/19 02:55:35;;;;;;;6.65;4.20;;;13.00;99.90;;;;;;4956919;28;20105;-77
2021/09/19 02:58:02;;;;;;;7.35;5.07;;;13.00;99.90;;;;;;4964898;28;20066;-77
2021/09/19 03:00:29;;;;;;;6.15;4.53;;;13.00;99.90;;;;;;4984469;28;20104;-77
2021/09/19 03:02:56;;;;;;;9.32;4.40;;;13.00;99.90;;;;;;4984689;28;20542;-76
2021/09/19 03:05:23;;;;;;;5.03;4.45;;;13.00;99.90;;;;;;4981857;28;20125;-77
2021/09/19 03:07:55;;;;;;;8.88;4.47;;;13.00;99.90;;;;;;4980627;28;20054;-77
2021/09/19 03:10:23;;;;;;;7.93;4.88;;;13.00;99.90;;;;;;4981585;28;20039;-77
2021/09/19 03:12:50;;;;;;;7.25;5.20;;;13.00;99.90;;;;;;4983737;28;20414;-77
2021/09/19 03:15:17;;;;;;;9.10;5.32;;;13.10;99.90;;;;;;4983868;28;20054;-75
2021/09/19 03:17:44;;;;;;;6.60;4.95;;;13.00;99.90;;;;;;4999038;28;20054;-76
2021/09/19 03:20:14;;;;;;;12.65;5.45;;;13.00;99.90;;;;;;4983783;28;20428;-76
2021/09/19 03:22:41;;;;;;;8.20;5.38;;;13.00;99.90;;;;;;4967086;28;20054;-78
2021/09/19 03:25:09;;;;;;;6.90;5.80;;;12.90;99.90;;;;;;4982791;28;20073;-77
2021/09/19 03:27:36;;;;;;;8.35;5.45;;;12.90;99.90;;;;;;4983473;28;20062;-78
2021/09/19 03:30:06;;;;;;;12.60;6.50;;;13.00;99.90;;;;;;4982543;28;20434;-76
2021/09/19 03:32:33;;;;;;;10.05;5.80;;;12.90;99.90;;;;;;4983832;28;20081;-77
2021/09/19 03:35:00;;;;;;;8.60;5.47;;;12.90;99.90;;;;;;4973831;28;20442;-78
2021/09/19 03:37:26;;;;;;;8.20;6.05;;;13.00;99.90;;;;;;4981071;28;20573;-78
2021/09/19 03:39:53;;;;;;;7.28;6.00;;;13.00;99.90;;;;;;4982314;28;20073;-76
2021/09/19 03:42:20;;;;;;;8.77;5.60;;;12.90;99.90;;;;;;4982646;28;20073;-76
2021/09/19 03:44:49;;;;;;;7.47;5.72;;;13.00;99.90;;;;;;4984140;28;20050;-76
2021/09/19 03:47:16;;;;;;;10.15;6.07;;;12.90;99.90;;;;;;4983138;28;20098;-77
2021/09/19 03:49:43;;;;;;;7.18;5.72;;;12.90;99.90;;;;;;4982874;28;20378;-77
2021/09/19 03:52:10;;;;;;;12.32;5.55;;;12.90;99.90;;;;;;4981469;28;20058;-77
2021/09/19 03:54:37;;;;;;;10.32;5.85;;;12.90;99.90;;;;;;4983280;28;20062;-77
2021/09/19 03:57:03;;;;;;;10.80;5.50;;;13.00;99.90;;;;;;4983629;28;20101;-77
2021/09/19 03:59:30;;;;;;;10.48;6.22;;;12.90;99.90;;;;;;4984240;28;20133;-77
2021/09/19 04:01:57;;;;;;;6.90;5.32;;;12.90;99.90;;;;;;4981827;28;20050;-78
2021/09/19 04:04:24;;;;;;;10.90;6.00;;;13.00;99.90;;;;;;4981967;28;20050;-76
2021/09/19 04:06:51;;;;;;;8.70;5.80;;;13.00;99.90;;;;;;4980564;28;20491;-77
2021/09/19 04:09:18;;;;;;;8.80;5.43;;;13.00;99.90;;;;;;4980440;28;20064;-78
2021/09/19 04:11:45;;;;;;;8.68;6.03;;;13.00;99.90;;;;;;4984619;28;20050;-78
2021/09/19 04:14:11;;;;;;;11.20;6.35;;;13.00;99.90;;;;;;4970230;28;20531;-76
2021/09/19 04:16:38;;;;;;;9.10;5.63;;;12.90;99.90;;;;;;4984213;28;20054;-77
2021/09/19 04:19:07;;;;;;;11.60;5.78;;;12.90;99.90;;;;;;4983531;28;20493;-77
2021/09/19 04:21:34;;;;;;;7.38;5.10;;;12.90;99.90;;;;;;4983802;28;20281;-77
2021/09/19 04:24:01;;;;;;;8.55;6.15;;;12.90;99.90;;;;;;4966597;28;20431;-77
2021/09/19 04:26:28;;;;;;;9.38;5.13;;;13.00;99.90;;;;;;4992234;28;20470;-77
2021/09/19 04:28:54;;;;;;;14.02;6.40;;;12.90;99.90;;;;;;4999130;28;20101;-77
2021/09/19 04:31:21;;;;;;;6.82;5.30;;;12.90;99.90;;;;;;4982112;28;20506;-76
2021/09/19 04:33:48;;;;;;;8.35;5.38;;;12.90;99.90;;;;;;4951655;28;20042;-77
2021/09/19 04:36:15;;;;;;;8.35;5.88;;;12.90;99.90;;;;;;4983023;28;20050;-77
2021/09/19 04:38:41;;;;;;;7.53;5.45;;;13.00;99.90;;;;;;4949384;28;20052;-76
2021/09/19 04:41:08;;;;;;;9.00;5.63;;;12.90;99.90;;;;;;4963636;28;20097;-76
2021/09/19 04:43:35;;;;;;;8.50;5.70;;;12.90;99.90;;;;;;4989668;28;20108;-77
2021/09/19 04:46:02;;;;;;;7.85;5.55;;;12.90;99.90;;;;;;4982729;28;20043;-77
2021/09/19 04:48:29;;;;;;;10.68;5.90;;;12.90;99.90;;;;;;4985260;28;20046;-78
2021/09/19 04:50:56;;;;;;;9.27;5.75;;;13.00;99.90;;;;;;4984448;28;20586;-77
2021/09/19 04:53:22;;;;;;;8.52;5.70;;;12.90;99.90;;;;;;4964296;28;20530;-77
2021/09/19 04:55:49;;;;;;;9.95;5.40;;;12.90;99.90;;;;;;4986094;28;20054;-76
2021/09/19 04:58:16;;;;;;;7.38;5.53;;;12.90;99.90;;;;;;4967511;28;20058;-76
2021/09/19 05:00:43;;;;;;;7.60;5.57;;;12.90;99.90;;;;;;4984882;28;20054;-78
2021/09/19 05:03:09;;;;;;;8.80;5.30;;;12.90;99.90;;;;;;4969028;28;20070;-77
2021/09/19 05:05:36;;;;;;;9.25;5.80;;;12.90;99.90;;;;;;4982716;28;20149;-76
2021/09/19 05:08:03;;;;;;;12.43;6.05;;;12.90;99.90;;;;;;4984526;28;20073;-78
2021/09/19 05:10:30;;;;;;;10.85;5.82;;;12.90;99.90;;;;;;4987157;28;20050;-76
2021/09/19 05:12:57;;;;;;;8.27;5.82;;;12.80;99.90;;;;;;4975805;28;20050;-77
2021/09/19 05:15:24;;;;;;;7.85;5.55;;;12.80;99.90;;;;;;4985667;28;20408;-76
2021/09/19 05:17:50;;;;;;;7.18;5.45;;;12.80;99.90;;;;;;4987238;28;20565;-77
2021/09/19 05:20:17;;;;;;;7.32;5.13;;;12.90;99.90;;;;;;4985019;28;20058;-78
2021/09/19 05:22:44;;;;;;;6.25;4.88;;;12.90;99.90;;;;;;4955520;28;20474;-78
2021/09/19 05:25:11;;;;;;;5.95;4.93;;;12.90;99.90;;;;;;4983687;28;20091;-77
2021/09/19 05:27:37;;;;;;;9.98;5.55;;;12.90;99.90;;;;;;4984115;28;20491;-77
2021/09/19 05:30:05;;;;;;;9.10;5.15;;;12.80;99.90;;;;;;5001103;28;20499;-77
2021/09/19 05:32:32;;;;;;;8.00;5.07;;;12.80;99.90;;;;;;4997664;28;20054;-76
2021/09/19 05:34:58;;;;;;;10.55;4.90;;;12.90;99.90;;;;;;4984260;28;20047;-77
2021/09/19 05:37:25;;;;;;;8.70;5.05;;;12.80;99.90;;;;;;4983241;28;20132;-78
2021/09/19 05:39:52;;;;;;;6.28;5.28;;;12.90;99.90;;;;;;4985151;28;20362;-77
2021/09/19 05:42:19;;;;;;;6.55;4.32;;;12.90;99.90;;;;;;4985028;28;20132;-76
2021/09/19 05:44:45;;;;;;;7.40;4.55;;;12.90;99.90;;;;;;4967147;28;20065;-78
2021/09/19 05:47:12;;;;;;;6.57;4.60;;;12.80;99.90;;;;;;4984014;28;20046;-77
2021/09/19 05:49:39;;;;;;;7.68;4.78;;;12.80;99.90;;;;;;4969234;28;20082;-77
2021/09/19 05:52:05;;;;;;;7.28;5.22;;;12.90;99.90;;;;;;4966591;28;20047;-76
2021/09/19 05:54:32;;;;;;;9.05;5.10;;;13.00;99.90;;;;;;4986094;28;20162;-77
2021/09/19 05:56:59;;;;;;;7.88;4.95;;;12.90;99.90;;;;;;4997546;28;20054;-77
2021/09/19 05:59:26;;;;;;;7.18;5.35;;;12.90;99.90;;;;;;5000752;28;20085;-78
2021/09/19 06:01:53;;;;;;;7.95;5.20;;;12.90;99.90;;;;;;4987174;28;20164;-76
2021/09/19 06:04:20;;;;;;;6.80;5.43;;;12.90;99.90;;;;;;4974616;28;20310;-77
2021/09/19 06:06:47;;;;;;;8.48;5.15;;;12.80;99.90;;;;;;4952075;28;20050;-77
2021/09/19 06:09:14;;;;;;;6.43;4.72;;;12.90;99.90;;;;;;4981531;28;20066;-77
2021/09/19 06:11:42;;;;;;;5.57;4.95;;;12.90;99.90;;;;;;4986481;28;20495;-76
2021/09/19 06:14:10;;;;;;;9.63;5.55;;;12.90;99.90;;;;;;4984592;28;20454;-76
2021/09/19 06:16:37;;;;;;;10.50;5.85;;;12.90;99.90;;;;;;4999195;28;20057;-77
2021/09/19 06:19:04;;;;;;;6.97;5.50;;;12.90;99.90;;;;;;4998674;28;20081;-77
2021/09/19 06:21:32;;;;;;;6.47;5.47;;;12.90;99.90;;;;;;4999557;28;20101;-77
2021/09/19 06:23:58;;;;;;;7.40;5.35;;;13.00;99.90;;;;;;4981898;28;20108;-77
2021/09/19 06:26:25;;;;;;;8.20;5.68;;;12.90;99.90;;;;;;4982271;28;20089;-78
2021/09/19 06:28:52;;;;;;;7.55;6.03;;;12.80;99.90;;;;;;4985234;28;20459;-78
2021/09/19 06:31:19;;;;;;;8.60;6.10;;;12.80;99.90;;;;;;4996336;28;20196;-77
2021/09/19 06:33:46;;;;;;;9.70;6.10;;;12.90;99.90;;;;;;4985896;28;20157;-77
2021/09/19 06:36:13;;;;;;;9.90;6.53;;;12.80;99.90;;;;;;4969279;28;20420;-77
2021/09/19 06:38:40;;;;;;;11.25;6.80;;;12.80;99.90;;;;;;4983212;28;20045;-77
2021/09/19 06:41:06;;;;;;;10.07;6.38;;;12.70;99.90;;;;;;4982826;28;20058;-77
2021/09/19 06:43:34;;;;;;;8.45;6.32;;;12.80;99.90;;;;;;4984494;28;20169;-77
2021/09/19 06:46:01;;;;;;;9.23;5.82;;;12.80;99.90;;;;;;4967001;28;20590;-77
2021/09/19 06:48:28;;;;;;;7.68;5.72;;;12.80;99.90;;;;;;4967594;28;20282;-76
2021/09/19 06:50:55;;;;;;;9.48;6.38;;;12.80;99.90;;;;;;4983200;28;20097;-76
2021/09/19 06:53:21;;;;;;;9.57;6.35;;;12.80;99.90;;;;;;4964498;28;20084;-78
2021/09/19 06:55:48;;;;;;;8.13;6.20;;;12.80;99.90;;;;;;4982657;28;20050;-77
2021/09/19 06:58:15;;;;;;;11.15;6.55;;;12.80;99.90;;;;;;4982884;28;20556;-78
2021/09/19 07:00:42;;;;;;;9.25;6.28;;;12.80;99.90;;;;;;4982803;28;20047;-78
2021/09/19 07:03:08;;;;;;;8.40;5.22;;;12.80;99.90;;;;;;4984985;28;20082;-77
2021/09/19 07:05:36;;;;;;;6.30;5.03;;;12.80;99.90;;;;;;4981600;28;20050;-77
2021/09/19 07:08:03;;;;;;;6.47;5.38;;;12.80;99.90;;;;;;4978676;28;20050;-77
2021/09/19 07:10:29;;;;;;;10.52;5.88;;;12.80;99.90;;;;;;4971719;28;20097;-76
2021/09/19 07:12:56;;;;;;;10.80;5.90;;;12.80;99.90;;;;;;4982708;28;20499;-78
2021/09/19 07:15:23;;;;;;;6.60;4.93;;;12.90;99.90;;;;;;4978611;28;20775;-77
2021/09/19 07:17:50;;;;;;;8.82;5.90;;;12.80;99.90;;;;;;4965643;28;20069;-77
2021/09/19 07:20:16;;;;;;;8.13;6.10;;;12.80;99.90;;;;;;4964631;28;20086;-77
2021/09/19 07:22:46;;;;;;;9.52;5.78;;;12.90;99.90;;;;;;4935001;28;20042;-77
2021/09/19 07:25:15;;;;;;;6.80;5.63;;;13.00;99.90;;;;;;4964845;28;20228;-77
2021/09/19 07:27:42;;;;;;;6.93;5.68;;;13.00;99.90;;;;;;4982845;28;20605;-76
2021/09/19 07:30:10;;;;;;;8.80;5.70;;;13.00;99.90;;;;;;4966606;28;20050;-77
2021/09/19 07:32:37;;;;;;;7.78;5.40;;;13.10;99.90;;;;;;4966314;28;20042;-77
2021/09/19 07:35:06;;;;;;;8.05;5.88;;;13.20;99.90;;;;;;4972432;28;20410;-76
2021/09/19 07:37:33;;;;;;;10.88;5.90;;;13.10;99.90;;;;;;4982839;28;20117;-77
2021/09/19 07:40:01;;;;;;;8.98;5.47;;;13.00;99.90;;;;;;4983461;28;20062;-77
2021/09/19 07:42:28;;;;;;;11.57;6.15;;;12.90;99.90;;;;;;4966971;28;20081;-76
2021/09/19 07:44:55;;;;;;;9.15;5.43;;;13.00;99.90;;;;;;4982829;28;20046;-77
2021/09/19 07:47:24;;;;;;;8.77;6.00;;;13.10;99.90;;;;;;4983046;28;20055;-77
2021/09/19 07:49:51;;;;;;;7.35;6.07;;;13.10;99.90;;;;;;4986807;28;20410;-77
2021/09/19 07:52:18;;;;;;;6.28;5.68;;;13.10;99.90;;;;;;4965311;28;20105;-76
2021/09/19 07:54:46;;;;;;;9.75;6.18;;;13.20;99.90;;;;;;4984804;28;20076;-76
2021/09/19 07:57:13;;;;;;;7.45;6.22;;;13.20;99.90;;;;;;4969489;28;20165;-75
2021/09/19 07:59:40;;;;;;;7.15;6.07;;;13.10;99.90;;;;;;4989842;28;20058;-77
2021/09/19 08:02:06;;;;;;;11.82;7.10;;;13.10;99.90;;;;;;4978776;28;20507;-76
2021/09/19 08:04:33;;;;;;;7.68;6.82;;;13.00;99.90;;;;;;4968018;28;20670;-79
2021/09/19 08:07:00;;;;;;;8.93;7.18;;;13.10;99.90;;;;;;4984314;28;20494;-77
2021/09/19 08:09:27;;;;;;;9.98;7.60;;;13.10;99.90;;;;;;4981622;28;20089;-75
2021/09/19 08:11:54;;;;;;;7.72;6.65;;;13.10;99.90;;;;;;4981121;28;20051;-75
2021/09/19 08:14:20;;;;;;;7.72;7.03;;;13.10;99.90;;;;;;4971977;28;20077;-76
2021/09/19 08:16:47;;;;;;;7.75;7.05;;;13.20;99.90;;;;;;4982503;28;20054;-77
2021/09/19 08:19:14;;;;;;;10.07;7.43;;;13.30;99.90;;;;;;4983614;28;20055;-77
2021/09/19 08:21:41;;;;;;;11.45;8.55;;;13.20;99.90;;;;;;4985690;28;20054;-77
2021/09/19 08:24:10;;;;;;;8.23;7.43;;;13.20;99.90;;;;;;4987381;28;20065;-78
2021/09/19 08:26:38;;;;;;;10.98;8.63;;;13.40;99.90;;;;;;4986723;28;20466;-77
2021/09/19 08:29:06;;;;;;;10.32;8.05;;;13.40;99.90;;;;;;4986477;28;20055;-76
2021/09/19 08:31:33;;;;;;;10.73;7.97;;;13.40;99.90;;;;;;4984175;28;20046;-76
2021/09/19 08:34:01;;;;;;;9.10;7.25;;;13.50;99.90;;;;;;4984786;28;20114;-76
2021/09/19 08:36:27;;;;;;;8.75;7.82;;;13.50;99.90;;;;;;4985203;28;20518;-76
2021/09/19 08:38:55;;;;;;;7.70;6.90;;;13.60;99.90;;;;;;4986298;28;20534;-77
2021/09/19 08:41:23;;;;;;;7.97;7.18;;;13.80;99.90;;;;;;4985126;28;20092;-76
2021/09/19 08:43:51;;;;;;;8.90;8.02;;;14.00;99.90;;;;;;4986482;28;20112;-76
2021/09/19 08:46:19;;;;;;;10.18;8.48;;;14.00;99.90;;;;;;4985535;28;20104;-76
2021/09/19 08:48:46;;;;;;;8.45;7.75;;;13.90;99.90;;;;;;4985955;28;20137;-76
2021/09/19 08:51:14;;;;;;;9.48;8.55;;;14.00;99.90;;;;;;4985126;28;20434;-77
2021/09/19 08:53:41;;;;;;;9.93;9.02;;;13.90;99.90;;;;;;4982129;28;20081;-76
2021/09/19 08:56:08;;;;;;;9.40;8.45;;;13.90;99.90;;;;;;4983966;28;20128;-77
2021/09/19 08:58:39;;;;;;;8.70;7.43;;;13.80;99.90;;;;;;4985941;28;20084;-78
2021/09/19 09:01:06;;;;;;;8.65;7.88;;;13.60;99.90;;;;;;4985392;28;20062;-77
2021/09/19 09:03:33;;;;;;;8.18;7.38;;;13.70;99.90;;;;;;4987326;28;20554;-78
2021/09/19 09:06:07;;;;;;;10.73;7.50;;;13.80;99.90;;;;;;4969927;28;20042;-78
2021/09/19 09:08:34;;;;;;;10.50;8.20;;;13.70;99.90;;;;;;4970044;28;20057;-78
2021/09/19 09:11:05;;;;;;;9.43;7.00;;;13.70;99.90;;;;;;4985568;28;20042;-75
2021/09/19 09:13:35;;;;;;;9.25;8.38;;;13.80;99.90;;;;;;4987490;28;20054;-75
2021/09/19 09:16:17;;;;;;;10.20;8.80;;;13.90;99.90;;;;;;4986875;28;20061;-77
2021/09/19 09:18:48;;;;;;;9.05;7.93;;;14.00;99.90;;;;;;4986847;28;20297;-78
2021/09/19 09:21:23;;;;;;;9.52;8.52;;;14.10;99.90;;;;;;4983642;28;20125;-76
2021/09/19 09:23:55;;;;;;;9.13;8.43;;;14.20;99.90;;;;;;4984425;28;20050;-77
2021/09/19 09:26:27;;;;;;;8.95;8.07;;;14.40;99.90;;;;;;4975954;28;20065;-76
2021/09/19 09:28:56;;;;;;;9.95;9.00;;;14.60;99.90;;;;;;5001452;28;20057;-76
2021/09/19 09:31:29;;;;;;;9.65;8.82;;;14.50;99.90;;;;;;4982906;28;20297;-78
2021/09/19 09:34:03;;;;;;;9.80;9.00;;;14.30;99.90;;;;;;4968035;28;20149;-79
2021/09/19 09:36:31;;;;;;;9.55;8.85;;;14.40;99.90;;;;;;4981604;28;20062;-77
2021/09/19 09:38:59;;;;;;;9.70;8.48;;;14.40;99.90;;;;;;4985103;28;20108;-76
2021/09/19 09:41:42;;;;;;;8.93;8.25;;;14.20;99.90;;;;;;4983891;28;20058;-75
2021/09/19 09:44:28;;;;;;;9.27;8.57;;;14.20;99.90;;;;;;4986685;28;20074;-78
2021/09/19 09:46:56;;;;;;;9.65;8.70;;;14.30;99.90;;;;;;4984368;28;20570;-78
2021/09/19 09:49:36;;;;;;;9.85;8.70;;;14.20;99.90;;;;;;4985136;28;20161;-77
2021/09/19 09:52:24;;;;;;;9.82;9.00;;;14.20;99.90;;;;;;4965043;28;20141;-77
2021/09/19 09:54:52;;;;;;;9.00;8.20;;;14.00;99.90;;;;;;4998525;28;20058;-78
2021/09/19 09:57:57;;;;;;;9.30;8.02;;;13.80;99.90;;;;;;4983745;28;20058;-77
2021/09/19 10:00:24;;;;;;;9.00;8.20;;;13.80;99.90;;;;;;4980168;28;20061;-78
2021/09/19 10:02:52;;;;;;;9.38;7.75;;;13.80;99.90;;;;;;4989738;28;20054;-78
2021/09/19 10:05:20;;;;;;;9.13;8.32;;;13.80;99.90;;;;;;4995602;28;20046;-78
2021/09/19 10:07:48;;;;;;;8.43;7.72;;;13.70;99.90;;;;;;4984893;28;20046;-76
2021/09/19 10:10:18;;;;;;;10.50;8.32;;;13.80;99.90;;;;;;4983583;28;20157;-76
2021/09/19 10:12:47;;;;;;;8.35;7.53;;;13.70;99.90;;;;;;4985921;28;20054;-75
2021/09/19 10:15:15;;;;;;;8.93;7.53;;;13.80;99.90;;;;;;4985760;28;20057;-75
2021/09/19 10:17:43;;;;;;;16.65;10.43;;;13.90;99.90;;;;;;4967927;28;20096;-76
2021/09/19 10:20:12;;;;;;;11.10;9.80;;;14.00;99.90;;;;;;4966494;28;20054;-75
2021/09/19 10:22:48;;;;;;;7.85;7.20;;;13.90;99.90;;;;;;4994485;28;20542;-76
2021/09/19 10:25:32;;;;;;;9.15;8.27;;;13.90;99.90;;;;;;4982636;28;20108;-75
2021/09/19 10:28:17;;;;;;;9.27;7.05;;;13.80;99.90;;;;;;4984279;28;20495;-76
2021/09/19 10:31:08;;;;;;;7.95;6.82;;;13.50;99.90;;;;;;4983647;28;20053;-78
2021/09/19 10:33:37;;;;;;;7.45;6.80;;;13.70;99.90;;;;;;4985693;28;20042;-76
2021/09/19 10:36:21;;;;;;;8.07;7.28;;;13.60;99.90;;;;;;4980956;28;20046;-76
2021/09/19 10:38:48;;;;;;;8.90;8.00;;;13.60;99.90;;;;;;4982702;28;20050;-80
2021/09/19 10:41:17;;;;;;;8.35;7.55;;;13.60;99.90;;;;;;4989537;28;20494;-76
2021/09/19 10:44:00;;;;;;;8.68;7.28;;;13.60;99.90;;;;;;4983591;28;20070;-76
2021/09/19 10:46:36;;;;;;;12.85;7.63;;;13.70;99.90;;;;;;4988230;28;20298;-77
2021/09/19 10:49:18;;;;;;;8.38;7.57;;;13.70;99.90;;;;;;4983314;28;20042;-76
2021/09/19 10:52:00;;;;;;;7.90;7.20;;;13.60;99.90;;;;;;4983470;28;20522;-76
2021/09/19 10:54:42;;;;;;;9.05;8.25;;;13.50;99.90;;;;;;4980361;28;20054;-77
2021/09/19 10:57:29;;;;;;;7.38;6.78;;;13.50;99.90;;;;;;4982140;28;20773;-77
2021/09/19 11:00:08;;;;;;;8.27;7.32;;;13.50;99.90;;;;;;4982849;28;20113;-79
2021/09/19 11:02:36;;;;;;;8.57;7.88;;;13.70;99.90;;;;;;4985108;28;20050;-78
2021/09/19 11:05:23;;;;;;;7.75;7.07;;;13.60;99.90;;;;;;4983428;28;20626;-76
2021/09/19 11:08:03;;;;;;;7.80;7.10;;;13.70;99.90;;;;;;4992963;28;20070;-77
2021/09/19 11:10:30;;;;;;;7.22;6.63;;;13.60;99.90;;;;;;4994851;28;20047;-77
2021/09/19 11:12:57;;;;;;;7.55;6.95;;;13.60;99.90;;;;;;4996351;28;20047;-77
2021/09/19 11:15:25;;;;;;;7.45;6.95;;;13.70;99.90;;;;;;4980278;28;20051;-76
2021/09/19 11:17:52;;;;;;;8.88;8.15;;;13.70;99.90;;;;;;4982355;28;20100;-75
2021/09/19 11:20:23;;;;;;;8.15;7.55;;;13.70;99.90;;;;;;4984186;28;20050;-76
2021/09/19 11:22:59;;;;;;;8.00;7.32;;;13.60;99.90;;;;;;4982334;28;20046;-76
2021/09/19 11:25:25;;;;;;;8.52;7.82;;;13.50;99.90;;;;;;4965234;28;20042;-78
2021/09/19 11:27:53;;;;;;;7.80;7.20;;;13.40;99.90;;;;;;4985905;28;20038;-77
2021/09/19 11:30:21;;;;;;;8.93;8.23;;;13.30;99.90;;;;;;4982754;28;20057;-77
2021/09/19 11:32:48;;;;;;;9.30;8.23;;;13.20;99.90;;;;;;4982332;28;20088;-77
2021/09/19 11:35:16;;;;;;;9.48;8.65;;;13.10;99.90;;;;;;4973412;28;20128;-77
2021/09/19 11:38:00;;;;;;;8.25;7.45;;;13.10;99.90;;;;;;4987289;28;20054;-77
2021/09/19 11:40:27;;;;;;;8.10;7.35;;;13.10;99.90;;;;;;4978547;28;20057;-79
2021/09/19 11:42:54;;;;;;;8.15;7.00;;;13.10;99.90;;;;;;4981832;28;20310;-76
2021/09/19 11:45:21;;;;;;;8.00;7.30;;;13.10;99.90;;;;;;4998958;28;20406;-75
2021/09/19 11:47:51;;;;;;;8.77;7.07;;;13.10;99.90;;;;;;4979575;28;20070;-77
2021/09/19 11:50:23;;;;;;;8.00;7.30;;;13.20;99.90;;;;;;4982238;28;20526;-79
2021/09/19 11:52:52;;;;;;;8.73;7.97;;;13.30;99.90;;;;;;4982666;28;20503;-75
2021/09/19 11:55:21;;;;;;;8.38;7.60;;;13.30;99.90;;;;;;4988243;28;20051;-76
2021/09/19 11:57:47;;;;;;;8.93;7.80;;;13.40;99.90;;;;;;4987935;28;20054;-78
2021/09/19 12:00:17;;;;;;;8.10;7.47;;;13.30;99.90;;;;;;4984912;28;20066;-77
2021/09/19 12:02:46;;;;;;;7.88;7.28;;;13.20;99.90;;;;;;4970312;28;20050;-78
2021/09/19 12:05:16;;;;;;;9.13;7.90;;;13.20;99.90;;;;;;4970070;28;20046;-76
2021/09/19 12:07:43;;;;;;;9.77;8.85;;;13.20;99.90;;;;;;4985800;28;20396;-76
2021/09/19 12:10:10;;;;;;;12.15;7.85;;;13.30;99.90;;;;;;4984027;28;20034;-76
2021/09/19 12:12:37;;;;;;;8.38;7.78;;;13.30;99.90;;;;;;4970103;28;20068;-76
2021/09/19 12:15:05;;;;;;;8.82;8.18;;;13.20;99.90;;;;;;4969444;28;20113;-77
2021/09/19 12:17:32;;;;;;;8.82;7.97;;;13.20;99.90;;;;;;4986963;28;20514;-76
2021/09/19 12:20:11;;;;;;;9.10;8.40;;;13.10;99.90;;;;;;4985385;28;20069;-76
2021/09/19 12:22:38;;;;;;;8.80;8.00;;;13.20;99.90;;;;;;4987482;28;20069;-76
2021/09/19 12:25:07;;;;;;;8.43;7.72;;;13.20;99.90;;;;;;4987497;28;20051;-76
2021/09/19 12:27:42;;;;;;;8.05;7.28;;;13.20;99.90;;;;;;4985588;28;20248;-76
2021/09/19 12:30:14;;;;;;;8.95;7.78;;;13.20;99.90;;;;;;4984291;28;20195;-76
2021/09/19 12:32:47;;;;;;;8.07;7.47;;;13.20;99.90;;;;;;4954148;28;20047;-78
2021/09/19 12:35:24;;;;;;;8.88;8.18;;;13.30;99.90;;;;;;4966646;28;20109;-76
2021/09/19 12:37:59;;;;;;;8.05;7.45;;;13.40;99.90;;;;;;4968334;28;20058;-77
2021/09/19 12:40:27;;;;;;;8.27;7.38;;;13.50;99.90;;;;;;4985456;28;20046;-78
2021/09/19 12:43:15;;;;;;;9.25;8.45;;;13.60;99.90;;;;;;4985193;28;20047;-76
2021/09/19 12:45:53;;;;;;;9.38;8.57;;;13.40;99.90;;;;;;4984604;28;20104;-77
2021/09/19 12:48:30;;;;;;;9.43;8.73;;;13.50;99.90;;;;;;4985735;28;20097;-75
2021/09/19 12:50:59;;;;;;;9.52;8.82;;;13.60;99.90;;;;;;4984510;28;20211;-78
2021/09/19 12:53:29;;;;;;;9.90;9.07;;;13.70;99.90;;;;;;4979649;28;20054;-75